Airfield :
LOGIN :

Register | Disclaimer

   EN    FR    IT 

 










Legend :    VFR   Marginal VFR   IFR   Intensive IFR   Very Intensive IFR
Visi :
Ceiling :
>= 8 km
>= 3000ft
5 to 8 km
1000 to 3000 ft
1500m to 5 km
500 to 1000 ft
800 to 1500m
200 to 500 ft
< 800m
< 200 ft
Symbols :   Thunderstorms  Fog  Heavy snow  Heavy precipitations  Wind > 20 kt
SIGMETs :     Misc.  Thunderstorms  Icing  Turbulence  Mountain Waves  Volcanic Ashes






- Airport Elevation : 915 ft
- IATA code : LUG


LSZA - Lugano

CURRENT METAR :
  • 250350Z AUTO VRB01KT 9999 -RA BKN060 15/15 Q1011

EXPIRED METARs :
  • 250320Z AUTO VRB02KT 9999 FEW070 BKN080 BKN100 15/15 Q1011
  • 250250Z AUTO VRB02KT 9999 BKN070 BKN080 //////TCU 15/15 Q1011
  • 250220Z AUTO VRB02KT 9999 -RA FEW065 SCT080 OVC090 15/15 Q1010
  • 250150Z AUTO VRB03KT 6000 RA BKN011 SCT065 15/15 Q1011
  • 250120Z AUTO VRB02KT 7000 RA SCT046 SCT055 16/16 Q1010 RETSRA

TAF TAF LSZA
Valid from the 25 at 03:00 until the 25 at 12:00 UTC


250225Z 2503/2512 VRB02KT 9999 FEW060 BKN080
PROB40
TEMPO 2510/2512 SCT030TCU
ATIS : +41 22 417 40 88



MET'MAP, your aeronautical weather chart ! - Copyright ORBIFLY December 2007 - Disclaimer

ORBIFLY MET'MAP TEAM :

Programming & Development : Alexandra Zaïnal
Original concept : Baudouin d'Aumeries
Technical & hardware support : Manuel Goepfert
Assistance : Marc-Olivier Méhu

Contact : metmap@orbifly.com




SOURCES & CREDITS :

   NOAA